Time;durP1;ratioP1;P1;durP2;ratioP2;P2;SDS_P1;SDS_P2;PMS_P1;PMS_P2;Temp;Humidity;BMP_temperature;BMP_pressure;BME280_temperature;BME280_humidity;BME280_pressure;Samples;Min_cycle;Max_cycle;Signal;HPM_P1;HPM_P2
2023/09/04 00:01:59;;;;;;;;;;;;;;;;;;2215202;59;1836;-18
2023/09/04 00:04:30;;;;;;;;;;;;;;;;;;2219258;66;1674;-18
2023/09/04 00:07:00;;;;;;;;;;;;;;;;;;2214952;66;1675;-18
2023/09/04 00:09:30;;;;;;;;;;;;;;;;;;2217517;66;2269;-18
2023/09/04 00:12:00;;;;;;;;;;;;;;;;;;2217635;58;2118;-18
2023/09/04 00:14:31;;;;;;;;;;;;;;;;;;2219291;66;1684;-18
2023/09/04 00:17:01;;;;;;;;;;;;;;;;;;2215427;59;2525;-18
2023/09/04 00:19:32;;;;;;;;;;;;;;;;;;2215736;66;1778;-18
2023/09/04 00:22:03;;;;;;;;;;;;;;;;;;2217974;59;1931;-18
2023/09/04 00:24:33;;;;;;;;;;;;;;;;;;2217282;66;1730;-18
2023/09/04 00:27:03;;;;;;;;;;;;;;;;;;2220202;53;2191;-24
2023/09/04 00:29:33;;;;;;;;;;;;;;;;;;2209394;59;1884;-24
2023/09/04 00:32:05;;;;;;;;;;;;;;;;;;2210245;59;2013;-23
2023/09/04 00:34:36;;;;;;;;;;;;;;;;;;2210528;66;1948;-24
2023/09/04 00:37:09;;;;;;;;;;;;;;;;;;2211202;59;1993;-24
2023/09/04 00:39:40;;;;;;;;;;;;;;;;;;2211870;59;1755;-23
2023/09/04 00:42:10;;;;;;;;;;;;;;;;;;2211271;66;2608;-24
2023/09/04 00:44:44;;;;;;;;;;;;;;;;;;2211811;59;2855;-24
2023/09/04 00:47:17;;;;;;;;;;;;;;;;;;2211324;66;1636;-24
2023/09/04 00:49:51;;;;;;;;;;;;;;;;;;2212329;59;2235;-24
2023/09/04 00:52:23;;;;;;;;;;;;;;;;;;2212223;59;2030;-24
2023/09/04 00:54:54;;;;;;;;;;;;;;;;;;2211896;66;1900;-24
2023/09/04 00:57:26;;;;;;;;;;;;;;;;;;2211762;59;1998;-24
2023/09/04 00:59:57;;;;;;;;;;;;;;;;;;2211871;58;2300;-24
2023/09/04 01:02:27;;;;;;;;;;;;;;;;;;2212205;66;1784;-24
2023/09/04 01:04:57;;;;;;;;;;;;;;;;;;2211650;66;1119;-23
2023/09/04 01:07:28;;;;;;;;;;;;;;;;;;2212334;66;1766;-24
2023/09/04 01:09:58;;;;;;;;;;;;;;;;;;2211320;59;2205;-23
2023/09/04 01:12:47;;;;;;;;;;;;;;;;;;2210330;59;2942;-24
2023/09/04 01:15:18;;;;;;;;;;;;;;;;;;2210636;66;1634;-24
2023/09/04 01:17:49;;;;;;;;;;;;;;;;;;2210049;66;1988;-24
2023/09/04 01:20:22;;;;;;;;;;;;;;;;;;2210602;66;2438;-24
2023/09/04 01:22:53;;;;;;;;;;;;;;;;;;2210588;66;1731;-24
2023/09/04 01:25:29;;;;;;;;;;;;;;;;;;2211674;66;1742;-24
2023/09/04 01:28:14;;;;;;;;;;;;;;;;;;2212560;58;1936;-24
2023/09/04 01:30:55;;;;;;;;;;;;;;;;;;2210914;59;1391;-24
2023/09/04 01:33:28;;;;;;;;;;;;;;;;;;2211208;59;1805;-24
2023/09/04 01:36:01;;;;;;;;;;;;;;;;;;2210399;66;1706;-24
2023/09/04 01:38:35;;;;;;;;;;;;;;;;;;2210415;59;2015;-24
2023/09/04 01:41:05;;;;;;;;;;;;;;;;;;2211172;66;1336;-24
2023/09/04 01:43:35;;;;;;;;;;;;;;;;;;2210728;66;1975;-23
2023/09/04 01:46:06;;;;;;;;;;;;;;;;;;2209621;59;2378;-24
2023/09/04 01:48:36;;;;;;;;;;;;;;;;;;2211715;66;2051;-24
2023/09/04 01:51:06;;;;;;;;;;;;;;;;;;2210730;59;1890;-23
2023/09/04 01:53:37;;;;;;;;;;;;;;;;;;2210634;59;1960;-23
2023/09/04 01:56:07;;;;;;;;;;;;;;;;;;2210858;66;2068;-24
2023/09/04 01:58:37;;;;;;;;;;;;;;;;;;2210163;66;1940;-23
2023/09/04 02:01:08;;;;;;;;;;;;;;;;;;2211280;59;1206;-23
2023/09/04 02:03:38;;;;;;;;;;;;;;;;;;2211179;66;1187;-23
2023/09/04 02:06:08;;;;;;;;;;;;;;;;;;2211036;66;1854;-23
2023/09/04 02:08:39;;;;;;;;;;;;;;;;;;2210358;66;2122;-24
2023/09/04 02:11:09;;;;;;;;;;;;;;;;;;2209854;59;2729;-24
2023/09/04 02:13:40;;;;;;;;;;;;;;;;;;2210446;59;2304;-23
2023/09/04 02:16:10;;;;;;;;;;;;;;;;;;2209914;66;1704;-23
2023/09/04 02:18:40;;;;;;;;;;;;;;;;;;2211341;59;2446;-23
2023/09/04 02:21:10;;;;;;;;;;;;;;;;;;2210754;66;2240;-23
2023/09/04 02:23:41;;;;;;;;;;;;;;;;;;2210847;66;2413;-24
2023/09/04 02:26:11;;;;;;;;;;;;;;;;;;2210488;59;2548;-23
2023/09/04 02:28:41;;;;;;;;;;;;;;;;;;2211387;59;1945;-24
2023/09/04 02:31:11;;;;;;;;;;;;;;;;;;2208232;59;1767;-23
2023/09/04 02:33:45;;;;;;;;;;;;;;;;;;2212111;59;1915;-23
2023/09/04 02:36:15;;;;;;;;;;;;;;;;;;2212512;66;2276;-23
2023/09/04 02:38:45;;;;;;;;;;;;;;;;;;2210080;59;1994;-24
2023/09/04 02:41:15;;;;;;;;;;;;;;;;;;2210770;66;2261;-23
2023/09/04 02:43:46;;;;;;;;;;;;;;;;;;2210329;66;1532;-23
2023/09/04 02:46:16;;;;;;;;;;;;;;;;;;2210653;59;2026;-23
2023/09/04 02:48:46;;;;;;;;;;;;;;;;;;2210996;66;2048;-23
2023/09/04 02:51:16;;;;;;;;;;;;;;;;;;2211320;59;1844;-23
2023/09/04 02:53:46;;;;;;;;;;;;;;;;;;2211638;59;2383;-23
2023/09/04 02:56:17;;;;;;;;;;;;;;;;;;2211330;59;2289;-24
2023/09/04 02:58:47;;;;;;;;;;;;;;;;;;2210765;66;2265;-23
2023/09/04 03:01:17;;;;;;;;;;;;;;;;;;2211155;58;2404;-23
2023/09/04 03:03:47;;;;;;;;;;;;;;;;;;2210782;66;1744;-23
2023/09/04 03:06:18;;;;;;;;;;;;;;;;;;2210935;59;1747;-24
2023/09/04 03:08:48;;;;;;;;;;;;;;;;;;2211949;67;2322;-24
2023/09/04 03:11:18;;;;;;;;;;;;;;;;;;2212059;59;2979;-23
2023/09/04 03:13:48;;;;;;;;;;;;;;;;;;2209628;59;2186;-24
2023/09/04 03:16:22;;;;;;;;;;;;;;;;;;2210171;66;2530;-24
2023/09/04 03:18:52;;;;;;;;;;;;;;;;;;2210581;66;2407;-23
2023/09/04 03:21:22;;;;;;;;;;;;;;;;;;2210734;66;1923;-23
2023/09/04 03:23:52;;;;;;;;;;;;;;;;;;2211690;66;2322;-23
2023/09/04 03:26:23;;;;;;;;;;;;;;;;;;2211101;59;2538;-23
2023/09/04 03:28:53;;;;;;;;;;;;;;;;;;2210721;59;1975;-23
2023/09/04 03:31:23;;;;;;;;;;;;;;;;;;2211161;59;1769;-23
2023/09/04 03:33:56;;;;;;;;;;;;;;;;;;2211596;59;2534;-24
2023/09/04 03:36:27;;;;;;;;;;;;;;;;;;2210905;66;2394;-24
2023/09/04 03:38:57;;;;;;;;;;;;;;;;;;2207381;59;1927;-24
2023/09/04 03:41:27;;;;;;;;;;;;;;;;;;2208986;67;2013;-24
2023/09/04 03:43:57;;;;;;;;;;;;;;;;;;2210857;59;2487;-24
2023/09/04 03:46:28;;;;;;;;;;;;;;;;;;2211904;58;2425;-24
2023/09/04 03:48:58;;;;;;;;;;;;;;;;;;2210860;66;2368;-24
2023/09/04 03:51:28;;;;;;;;;;;;;;;;;;2211365;59;2396;-24
2023/09/04 03:54:01;;;;;;;;;;;;;;;;;;2211715;59;3037;-24
2023/09/04 03:56:32;;;;;;;;;;;;;;;;;;2212040;59;1825;-24
2023/09/04 03:59:02;;;;;;;;;;;;;;;;;;2210794;66;2973;-24
2023/09/04 04:01:33;;;;;;;;;;;;;;;;;;2211456;58;1725;-24
2023/09/04 04:04:03;;;;;;;;;;;;;;;;;;2210305;66;4329;-24
2023/09/04 04:06:33;;;;;;;;;;;;;;;;;;2211116;66;1971;-24
2023/09/04 04:09:04;;;;;;;;;;;;;;;;;;2210392;66;2020;-24
2023/09/04 04:11:38;;;;;;;;;;;;;;;;;;2211485;59;1979;-24
2023/09/04 04:14:08;;;;;;;;;;;;;;;;;;2210702;66;2294;-24
2023/09/04 04:16:38;;;;;;;;;;;;;;;;;;2211292;59;2430;-24
2023/09/04 04:19:08;;;;;;;;;;;;;;;;;;2211160;66;1966;-24
2023/09/04 04:21:40;;;;;;;;;;;;;;;;;;2211110;66;2595;-24
2023/09/04 04:24:11;;;;;;;;;;;;;;;;;;2211086;66;1707;-24
2023/09/04 04:26:42;;;;;;;;;;;;;;;;;;2211692;59;1820;-24
2023/09/04 04:29:13;;;;;;;;;;;;;;;;;;2210770;59;1958;-24
2023/09/04 04:31:43;;;;;;;;;;;;;;;;;;2211725;66;2682;-24
2023/09/04 04:34:16;;;;;;;;;;;;;;;;;;2210889;59;1631;-24
2023/09/04 04:36:50;;;;;;;;;;;;;;;;;;2210324;66;2059;-24
2023/09/04 04:39:20;;;;;;;;;;;;;;;;;;2210571;59;2195;-24
2023/09/04 04:41:53;;;;;;;;;;;;;;;;;;2210742;66;1633;-24
2023/09/04 04:44:24;;;;;;;;;;;;;;;;;;2211838;59;1886;-24
2023/09/04 04:46:54;;;;;;;;;;;;;;;;;;2211851;66;1940;-24
2023/09/04 04:49:24;;;;;;;;;;;;;;;;;;2212118;59;1796;-24
2023/09/04 04:51:59;;;;;;;;;;;;;;;;;;2211551;59;1827;-24
2023/09/04 04:54:29;;;;;;;;;;;;;;;;;;2211064;59;1816;-24
2023/09/04 04:56:59;;;;;;;;;;;;;;;;;;2210754;59;2238;-24
2023/09/04 04:59:29;;;;;;;;;;;;;;;;;;2211259;66;2212;-24
2023/09/04 05:02:00;;;;;;;;;;;;;;;;;;2211802;58;1823;-24
2023/09/04 05:04:33;;;;;;;;;;;;;;;;;;2211165;66;2366;-24
2023/09/04 05:07:03;;;;;;;;;;;;;;;;;;2210836;66;2513;-24
2023/09/04 05:09:33;;;;;;;;;;;;;;;;;;2211004;66;1770;-24
2023/09/04 05:12:04;;;;;;;;;;;;;;;;;;2210805;59;2172;-24
2023/09/04 05:14:34;;;;;;;;;;;;;;;;;;2211000;66;2560;-24
2023/09/04 05:17:04;;;;;;;;;;;;;;;;;;2210464;63;2407;-24
2023/09/04 05:19:34;;;;;;;;;;;;;;;;;;2211460;59;1956;-24
2023/09/04 05:22:05;;;;;;;;;;;;;;;;;;2212188;66;1906;-24
2023/09/04 05:24:35;;;;;;;;;;;;;;;;;;2211614;66;1831;-24
2023/09/04 05:27:05;;;;;;;;;;;;;;;;;;2210288;59;3665;-24
2023/09/04 05:29:36;;;;;;;;;;;;;;;;;;2211360;59;1981;-24
2023/09/04 05:32:06;;;;;;;;;;;;;;;;;;2211479;59;1836;-24
2023/09/04 05:34:39;;;;;;;;;;;;;;;;;;2210951;66;1398;-24
2023/09/04 05:37:11;;;;;;;;;;;;;;;;;;2210650;59;1940;-24
2023/09/04 05:39:41;;;;;;;;;;;;;;;;;;2210970;59;1829;-24
2023/09/04 05:42:12;;;;;;;;;;;;;;;;;;2210280;66;1534;-24
2023/09/04 05:44:42;;;;;;;;;;;;;;;;;;2211042;59;1770;-24
2023/09/04 05:47:12;;;;;;;;;;;;;;;;;;2210533;66;1257;-24
2023/09/04 05:49:42;;;;;;;;;;;;;;;;;;2211320;66;1811;-24
2023/09/04 05:52:13;;;;;;;;;;;;;;;;;;2210724;59;1447;-24
2023/09/04 05:54:43;;;;;;;;;;;;;;;;;;2210871;66;1307;-24
2023/09/04 05:57:13;;;;;;;;;;;;;;;;;;2210607;59;2228;-24
2023/09/04 05:59:46;;;;;;;;;;;;;;;;;;2212440;59;1447;-24
2023/09/04 06:02:19;;;;;;;;;;;;;;;;;;2211214;66;2145;-24
2023/09/04 06:04:50;;;;;;;;;;;;;;;;;;2211185;66;1404;-24
2023/09/04 06:07:20;;;;;;;;;;;;;;;;;;2207868;59;1575;-24
2023/09/04 06:09:50;;;;;;;;;;;;;;;;;;2210353;66;1253;-24
2023/09/04 06:12:23;;;;;;;;;;;;;;;;;;2210810;59;1955;-24
2023/09/04 06:14:54;;;;;;;;;;;;;;;;;;2211354;66;3563;-24
2023/09/04 06:17:24;;;;;;;;;;;;;;;;;;2210118;59;2206;-24
2023/09/04 06:19:54;;;;;;;;;;;;;;;;;;2210724;66;2104;-24
2023/09/04 06:22:27;;;;;;;;;;;;;;;;;;2210504;66;2397;-24
2023/09/04 06:24:57;;;;;;;;;;;;;;;;;;2210284;66;2081;-24
2023/09/04 06:27:27;;;;;;;;;;;;;;;;;;2209975;59;1719;-24
2023/09/04 06:29:58;;;;;;;;;;;;;;;;;;2211553;59;1825;-24
2023/09/04 06:32:28;;;;;;;;;;;;;;;;;;2210233;59;3048;-24
2023/09/04 06:34:58;;;;;;;;;;;;;;;;;;2210447;66;2359;-24
2023/09/04 06:37:28;;;;;;;;;;;;;;;;;;2210955;59;2042;-24
2023/09/04 06:39:59;;;;;;;;;;;;;;;;;;2210869;59;2085;-24
2023/09/04 06:42:29;;;;;;;;;;;;;;;;;;2210983;66;2424;-24
2023/09/04 06:44:59;;;;;;;;;;;;;;;;;;2211683;59;1964;-24
2023/09/04 06:47:29;;;;;;;;;;;;;;;;;;2211474;66;2004;-24
2023/09/04 06:50:01;;;;;;;;;;;;;;;;;;2211385;59;2280;-24
2023/09/04 06:52:31;;;;;;;;;;;;;;;;;;2211082;59;1563;-24
2023/09/04 06:55:03;;;;;;;;;;;;;;;;;;2210907;66;2784;-24
2023/09/04 06:57:33;;;;;;;;;;;;;;;;;;2212030;59;1999;-24
2023/09/04 07:00:08;;;;;;;;;;;;;;;;;;2212103;58;2162;-25
2023/09/04 07:02:39;;;;;;;;;;;;;;;;;;2211465;66;2782;-25
2023/09/04 07:05:09;;;;;;;;;;;;;;;;;;2210195;66;1949;-25
2023/09/04 07:07:39;;;;;;;;;;;;;;;;;;2211084;67;2037;-24
2023/09/04 07:10:10;;;;;;;;;;;;;;;;;;2210836;67;1874;-25
2023/09/04 07:12:40;;;;;;;;;;;;;;;;;;2211175;59;2012;-25
2023/09/04 07:15:11;;;;;;;;;;;;;;;;;;2209801;66;2037;-25
2023/09/04 07:17:41;;;;;;;;;;;;;;;;;;2210146;59;3029;-25
2023/09/04 07:20:11;;;;;;;;;;;;;;;;;;2210819;66;2637;-25
2023/09/04 07:22:41;;;;;;;;;;;;;;;;;;2211033;59;1472;-25
2023/09/04 07:25:12;;;;;;;;;;;;;;;;;;2210815;66;2021;-25
2023/09/04 07:27:42;;;;;;;;;;;;;;;;;;2211265;59;3027;-25
2023/09/04 07:30:13;;;;;;;;;;;;;;;;;;2212321;66;1900;-23
2023/09/04 07:32:43;;;;;;;;;;;;;;;;;;2212725;59;1747;-23
2023/09/04 07:35:13;;;;;;;;;;;;;;;;;;2210783;66;1765;-23
2023/09/04 07:37:44;;;;;;;;;;;;;;;;;;2210535;59;2045;-23
2023/09/04 07:40:14;;;;;;;;;;;;;;;;;;2210322;67;2209;-23
2023/09/04 07:42:45;;;;;;;;;;;;;;;;;;2210852;66;2377;-23
2023/09/04 07:45:16;;;;;;;;;;;;;;;;;;2210736;59;2067;-23
2023/09/04 07:47:48;;;;;;;;;;;;;;;;;;2210218;66;1786;-23
2023/09/04 07:50:18;;;;;;;;;;;;;;;;;;2209766;59;2843;-23
2023/09/04 07:52:48;;;;;;;;;;;;;;;;;;2210906;59;1747;-23
2023/09/04 07:55:19;;;;;;;;;;;;;;;;;;2210582;66;2423;-23
2023/09/04 07:57:49;;;;;;;;;;;;;;;;;;2210682;66;2389;-23
2023/09/04 08:00:21;;;;;;;;;;;;;;;;;;2211241;58;2390;-23
2023/09/04 08:02:52;;;;;;;;;;;;;;;;;;2210411;66;2633;-23
2023/09/04 08:05:22;;;;;;;;;;;;;;;;;;2210267;67;1763;-23
2023/09/04 08:07:52;;;;;;;;;;;;;;;;;;2212006;66;1849;-23
2023/09/04 08:10:22;;;;;;;;;;;;;;;;;;2211683;66;2107;-23
2023/09/04 08:12:53;;;;;;;;;;;;;;;;;;2211915;66;2043;-23
2023/09/04 08:15:23;;;;;;;;;;;;;;;;;;2211860;66;2456;-23
2023/09/04 08:17:53;;;;;;;;;;;;;;;;;;2210591;58;2144;-23
2023/09/04 08:20:23;;;;;;;;;;;;;;;;;;2210692;63;2384;-23
2023/09/04 08:22:53;;;;;;;;;;;;;;;;;;2211249;59;1803;-23
2023/09/04 08:25:27;;;;;;;;;;;;;;;;;;2210630;66;1780;-24
2023/09/04 08:27:57;;;;;;;;;;;;;;;;;;2210810;59;2438;-23
2023/09/04 08:30:27;;;;;;;;;;;;;;;;;;2211367;66;2295;-24
2023/09/04 08:32:57;;;;;;;;;;;;;;;;;;2211771;59;2739;-24
2023/09/04 08:35:29;;;;;;;;;;;;;;;;;;2211232;66;1948;-23
2023/09/04 08:38:03;;;;;;;;;;;;;;;;;;2210284;59;2007;-23
2023/09/04 08:40:34;;;;;;;;;;;;;;;;;;2211633;59;2611;-24
2023/09/04 08:43:04;;;;;;;;;;;;;;;;;;2211415;66;1816;-23
2023/09/04 08:45:40;;;;;;;;;;;;;;;;;;2210993;59;2131;-24
2023/09/04 08:48:11;;;;;;;;;;;;;;;;;;2211194;66;2552;-24
2023/09/04 08:50:42;;;;;;;;;;;;;;;;;;2211509;59;1843;-24
2023/09/04 08:53:13;;;;;;;;;;;;;;;;;;2211098;59;3337;-24
2023/09/04 08:55:43;;;;;;;;;;;;;;;;;;2211162;59;1970;-24
2023/09/04 08:58:14;;;;;;;;;;;;;;;;;;2209830;66;2065;-24
2023/09/04 09:00:46;;;;;;;;;;;;;;;;;;2211181;58;1820;-24
2023/09/04 09:03:17;;;;;;;;;;;;;;;;;;2210841;66;1749;-24
2023/09/04 09:05:48;;;;;;;;;;;;;;;;;;2211806;66;1850;-24
2023/09/04 09:08:22;;;;;;;;;;;;;;;;;;2210419;66;2608;-24
2023/09/04 09:10:53;;;;;;;;;;;;;;;;;;2211301;66;1946;-24
2023/09/04 09:13:23;;;;;;;;;;;;;;;;;;2212144;59;2802;-24
2023/09/04 09:15:54;;;;;;;;;;;;;;;;;;2212843;66;1761;-24
2023/09/04 09:18:35;;;;;;;;;;;;;;;;;;2210252;59;2315;-24
2023/09/04 09:21:34;;;;;;;;;;;;;;;;;;2210115;59;2272;-24
2023/09/04 09:24:18;;;;;;;;;;;;;;;;;;2203936;66;1819;-24
2023/09/04 09:26:49;;;;;;;;;;;;;;;;;;2211282;66;2261;-24
2023/09/04 09:29:19;;;;;;;;;;;;;;;;;;2209945;59;1821;-24
2023/09/04 09:31:52;;;;;;;;;;;;;;;;;;2211932;59;1785;-24
2023/09/04 09:34:24;;;;;;;;;;;;;;;;;;2210818;59;2485;-24
2023/09/04 09:36:57;;;;;;;;;;;;;;;;;;2211022;66;1943;-24
2023/09/04 09:39:29;;;;;;;;;;;;;;;;;;2213348;58;2396;-24
2023/09/04 09:42:01;;;;;;;;;;;;;;;;;;2211559;66;1353;-24
2023/09/04 09:44:31;;;;;;;;;;;;;;;;;;2211303;59;1933;-24
2023/09/04 09:47:01;;;;;;;;;;;;;;;;;;2211941;66;1400;-24
2023/09/04 09:49:33;;;;;;;;;;;;;;;;;;2211781;59;1351;-24
2023/09/04 09:52:10;;;;;;;;;;;;;;;;;;2212873;59;1635;-24
2023/09/04 09:54:42;;;;;;;;;;;;;;;;;;2212890;66;1657;-24
2023/09/04 09:57:13;;;;;;;;;;;;;;;;;;2211469;59;1988;-24
2023/09/04 09:59:43;;;;;;;;;;;;;;;;;;2211038;58;1621;-24
2023/09/04 10:02:22;;;;;;;;;;;;;;;;;;2211746;58;1529;-24
2023/09/04 10:04:52;;;;;;;;;;;;;;;;;;2211076;67;1925;-24
2023/09/04 10:07:26;;;;;;;;;;;;;;;;;;2211096;66;1731;-24
2023/09/04 10:10:03;;;;;;;;;;;;;;;;;;2210982;66;1288;-24
2023/09/04 10:12:41;;;;;;;;;;;;;;;;;;2210976;59;1653;-24
2023/09/04 10:15:13;;;;;;;;;;;;;;;;;;2211355;66;1441;-24
2023/09/04 10:17:45;;;;;;;;;;;;;;;;;;2210901;66;1941;-24
2023/09/04 10:20:16;;;;;;;;;;;;;;;;;;2209471;59;2422;-24
2023/09/04 10:22:50;;;;;;;;;;;;;;;;;;2210040;66;2091;-24
2023/09/04 10:25:21;;;;;;;;;;;;;;;;;;2210329;66;1838;-24
2023/09/04 10:27:55;;;;;;;;;;;;;;;;;;2211258;59;1977;-24
2023/09/04 10:30:26;;;;;;;;;;;;;;;;;;2210894;59;1772;-22
2023/09/04 10:32:58;;;;;;;;;;;;;;;;;;2210010;59;2451;-22
2023/09/04 10:35:29;;;;;;;;;;;;;;;;;;2210632;66;1816;-22
2023/09/04 10:38:00;;;;;;;;;;;;;;;;;;2207232;67;1948;-22
2023/09/04 10:40:34;;;;;;;;;;;;;;;;;;2211135;66;1782;-22
2023/09/04 10:43:04;;;;;;;;;;;;;;;;;;2210270;66;2372;-22
2023/09/04 10:45:35;;;;;;;;;;;;;;;;;;2211061;59;1676;-22
2023/09/04 10:48:06;;;;;;;;;;;;;;;;;;2210790;66;2830;-22
2023/09/04 10:50:37;;;;;;;;;;;;;;;;;;2211236;59;1816;-22
2023/09/04 10:53:08;;;;;;;;;;;;;;;;;;2211244;59;1939;-22
2023/09/04 10:55:38;;;;;;;;;;;;;;;;;;2210569;59;2816;-22
2023/09/04 10:58:08;;;;;;;;;;;;;;;;;;2210413;66;1918;-22
2023/09/04 11:00:39;;;;;;;;;;;;;;;;;;2211020;58;1640;-22
2023/09/04 11:03:14;;;;;;;;;;;;;;;;;;2210893;66;1959;-22
2023/09/04 11:06:07;;;;;;;;;;;;;;;;;;2210966;66;1781;-22
2023/09/04 11:08:40;;;;;;;;;;;;;;;;;;2210815;66;2359;-22
2023/09/04 11:11:10;;;;;;;;;;;;;;;;;;2210953;66;2524;-22
2023/09/04 11:13:43;;;;;;;;;;;;;;;;;;2210197;59;2855;-22
2023/09/04 11:16:14;;;;;;;;;;;;;;;;;;2210327;59;1642;-22
2023/09/04 11:18:45;;;;;;;;;;;;;;;;;;2210334;59;2180;-22
2023/09/04 11:21:15;;;;;;;;;;;;;;;;;;2209204;59;2698;-22
2023/09/04 11:23:45;;;;;;;;;;;;;;;;;;2209975;59;2602;-22
2023/09/04 11:26:15;;;;;;;;;;;;;;;;;;2211266;59;2356;-22
2023/09/04 11:28:45;;;;;;;;;;;;;;;;;;2211591;59;2459;-22
2023/09/04 11:31:17;;;;;;;;;;;;;;;;;;2211131;59;2284;-22
2023/09/04 11:33:48;;;;;;;;;;;;;;;;;;2210411;59;2041;-22
2023/09/04 11:36:18;;;;;;;;;;;;;;;;;;2210414;66;2373;-22
2023/09/04 11:39:04;;;;;;;;;;;;;;;;;;2210443;59;2027;-22
2023/09/04 11:41:35;;;;;;;;;;;;;;;;;;2211692;66;2517;-22
2023/09/04 11:44:06;;;;;;;;;;;;;;;;;;2212237;66;2584;-22
2023/09/04 11:46:36;;;;;;;;;;;;;;;;;;2212051;59;1914;-22
2023/09/04 11:49:06;;;;;;;;;;;;;;;;;;2211272;66;2426;-24
2023/09/04 11:51:37;;;;;;;;;;;;;;;;;;2212218;59;1867;-23
2023/09/04 11:54:07;;;;;;;;;;;;;;;;;;2212227;59;1936;-22
2023/09/04 11:56:38;;;;;;;;;;;;;;;;;;2212103;59;2443;-22
2023/09/04 11:59:08;;;;;;;;;;;;;;;;;;2211586;66;2010;-22
2023/09/04 12:01:38;;;;;;;;;;;;;;;;;;2212161;58;2488;-23
2023/09/04 12:04:08;;;;;;;;;;;;;;;;;;2211469;66;1972;-22
2023/09/04 12:06:39;;;;;;;;;;;;;;;;;;2211638;66;1915;-23
2023/09/04 12:09:11;;;;;;;;;;;;;;;;;;2211036;66;1933;-23
2023/09/04 12:11:41;;;;;;;;;;;;;;;;;;2210721;59;1847;-23
2023/09/04 12:14:11;;;;;;;;;;;;;;;;;;2212223;66;1954;-22
2023/09/04 12:16:43;;;;;;;;;;;;;;;;;;2211399;66;1748;-23
2023/09/04 12:19:15;;;;;;;;;;;;;;;;;;2211115;59;1949;-22
2023/09/04 12:21:45;;;;;;;;;;;;;;;;;;2211886;66;2918;-23
2023/09/04 12:24:16;;;;;;;;;;;;;;;;;;2213319;58;2190;-23
2023/09/04 12:26:47;;;;;;;;;;;;;;;;;;2213024;59;1693;-22
2023/09/04 12:29:18;;;;;;;;;;;;;;;;;;2217437;53;3590;-21
2023/09/04 12:31:48;;;;;;;;;;;;;;;;;;2219089;58;1854;-21
2023/09/04 12:34:23;;;;;;;;;;;;;;;;;;2215189;58;1769;-21
2023/09/04 12:36:56;;;;;;;;;;;;;;;;;;2218848;66;1895;-21
2023/09/04 12:39:27;;;;;;;;;;;;;;;;;;2218722;66;1772;-21
2023/09/04 12:41:58;;;;;;;;;;;;;;;;;;2219093;66;1364;-21
2023/09/04 12:44:29;;;;;;;;;;;;;;;;;;2219361;58;1457;-21
2023/09/04 12:47:00;;;;;;;;;;;;;;;;;;2218578;66;1645;-21
2023/09/04 12:49:31;;;;;;;;;;;;;;;;;;2219513;58;1424;-21
2023/09/04 12:52:02;;;;;;;;;;;;;;;;;;2215903;58;1485;-21
2023/09/04 12:54:32;;;;;;;;;;;;;;;;;;2218707;66;1322;-21
2023/09/04 12:57:05;;;;;;;;;;;;;;;;;;2213554;59;2000;-21
2023/09/04 12:59:35;;;;;;;;;;;;;;;;;;2218652;59;1401;-21
2023/09/04 13:02:06;;;;;;;;;;;;;;;;;;2219369;58;1954;-21
2023/09/04 13:04:36;;;;;;;;;;;;;;;;;;2219328;66;1710;-20
2023/09/04 13:07:06;;;;;;;;;;;;;;;;;;2225046;66;1370;-23
2023/09/04 13:09:39;;;;;;;;;;;;;;;;;;2223358;66;1622;-21
2023/09/04 13:12:10;;;;;;;;;;;;;;;;;;2219312;58;1598;-21
2023/09/04 13:14:40;;;;;;;;;;;;;;;;;;2218819;66;1671;-21
2023/09/04 13:17:10;;;;;;;;;;;;;;;;;;2217619;66;1929;-20
2023/09/04 13:19:40;;;;;;;;;;;;;;;;;;2218696;66;1243;-20
2023/09/04 13:22:10;;;;;;;;;;;;;;;;;;2218858;66;2396;-20
2023/09/04 13:24:41;;;;;;;;;;;;;;;;;;2218311;66;2811;-21
2023/09/04 13:27:11;;;;;;;;;;;;;;;;;;2218631;58;1758;-20
2023/09/04 13:29:43;;;;;;;;;;;;;;;;;;2218854;58;1714;-21
2023/09/04 13:32:13;;;;;;;;;;;;;;;;;;2215494;58;1881;-21
2023/09/04 13:34:44;;;;;;;;;;;;;;;;;;2218641;66;1910;-20
2023/09/04 13:37:15;;;;;;;;;;;;;;;;;;2219018;66;2999;-20
2023/09/04 13:39:45;;;;;;;;;;;;;;;;;;2218265;66;1569;-20
2023/09/04 13:42:15;;;;;;;;;;;;;;;;;;2218076;59;1637;-20
2023/09/04 13:44:45;;;;;;;;;;;;;;;;;;2218485;58;2466;-20
2023/09/04 13:47:22;;;;;;;;;;;;;;;;;;2218445;66;2061;-20
2023/09/04 13:49:53;;;;;;;;;;;;;;;;;;2219523;58;1810;-20
2023/09/04 13:52:24;;;;;;;;;;;;;;;;;;2218157;58;1815;-20
2023/09/04 13:54:55;;;;;;;;;;;;;;;;;;2217678;58;1749;-20
2023/09/04 13:57:25;;;;;;;;;;;;;;;;;;2218949;58;1970;-20
2023/09/04 13:59:55;;;;;;;;;;;;;;;;;;2218646;58;1889;-20
2023/09/04 14:02:26;;;;;;;;;;;;;;;;;;2218561;66;1890;-20
2023/09/04 14:04:56;;;;;;;;;;;;;;;;;;2218093;66;1782;-21
2023/09/04 14:07:29;;;;;;;;;;;;;;;;;;2215045;66;2547;-20
2023/09/04 14:10:00;;;;;;;;;;;;;;;;;;2218824;58;1790;-20
2023/09/04 14:12:30;;;;;;;;;;;;;;;;;;2219050;58;2459;-21
2023/09/04 14:15:01;;;;;;;;;;;;;;;;;;2217986;66;1869;-20
2023/09/04 14:17:31;;;;;;;;;;;;;;;;;;2218889;58;1988;-21
2023/09/04 14:20:01;;;;;;;;;;;;;;;;;;2217882;66;1827;-20
2023/09/04 14:22:32;;;;;;;;;;;;;;;;;;2218541;66;2082;-20
2023/09/04 14:25:02;;;;;;;;;;;;;;;;;;2212994;58;2603;-22
2023/09/04 14:27:32;;;;;;;;;;;;;;;;;;2218298;58;1964;-21
2023/09/04 14:30:03;;;;;;;;;;;;;;;;;;2218362;66;2028;-21
2023/09/04 14:32:34;;;;;;;;;;;;;;;;;;2218929;58;1744;-22
2023/09/04 14:35:05;;;;;;;;;;;;;;;;;;2218434;66;1814;-21
2023/09/04 14:37:35;;;;;;;;;;;;;;;;;;2215263;66;1947;-22
2023/09/04 14:40:06;;;;;;;;;;;;;;;;;;2215123;66;1832;-20
2023/09/04 14:42:36;;;;;;;;;;;;;;;;;;2218775;58;1981;-21
2023/09/04 14:45:07;;;;;;;;;;;;;;;;;;2218435;58;1771;-21
2023/09/04 14:47:37;;;;;;;;;;;;;;;;;;2215473;66;1963;-21
2023/09/04 14:50:07;;;;;;;;;;;;;;;;;;2218708;58;1897;-21
2023/09/04 14:52:37;;;;;;;;;;;;;;;;;;2219124;58;1763;-21
2023/09/04 14:55:08;;;;;;;;;;;;;;;;;;2218687;66;1725;-21
2023/09/04 14:57:38;;;;;;;;;;;;;;;;;;2218684;58;1912;-21
2023/09/04 15:00:09;;;;;;;;;;;;;;;;;;2218438;58;1884;-21
2023/09/04 15:02:45;;;;;;;;;;;;;;;;;;2215997;66;1855;-21
2023/09/04 15:05:16;;;;;;;;;;;;;;;;;;2218777;66;1803;-21
2023/09/04 15:07:46;;;;;;;;;;;;;;;;;;2218569;66;2591;-21
2023/09/04 15:10:16;;;;;;;;;;;;;;;;;;2215864;66;2032;-21
2023/09/04 15:12:46;;;;;;;;;;;;;;;;;;2216445;58;2517;-21
2023/09/04 15:15:17;;;;;;;;;;;;;;;;;;2218783;66;2033;-21
2023/09/04 15:17:47;;;;;;;;;;;;;;;;;;2219442;58;1988;-21
2023/09/04 15:20:17;;;;;;;;;;;;;;;;;;2215294;66;1547;-21
2023/09/04 15:22:47;;;;;;;;;;;;;;;;;;2215281;66;1299;-21
2023/09/04 15:25:17;;;;;;;;;;;;;;;;;;2218250;58;3083;-21
2023/09/04 15:27:48;;;;;;;;;;;;;;;;;;2215237;58;2730;-21
2023/09/04 15:30:18;;;;;;;;;;;;;;;;;;2218737;66;2401;-21
2023/09/04 15:32:49;;;;;;;;;;;;;;;;;;2219139;58;2152;-21
2023/09/04 15:35:19;;;;;;;;;;;;;;;;;;2215590;66;2010;-21
2023/09/04 15:37:49;;;;;;;;;;;;;;;;;;2218813;66;1947;-21
2023/09/04 15:40:20;;;;;;;;;;;;;;;;;;2219192;66;1849;-21
2023/09/04 15:42:50;;;;;;;;;;;;;;;;;;2218696;66;1748;-21
2023/09/04 15:45:20;;;;;;;;;;;;;;;;;;2219591;58;1649;-21
2023/09/04 15:47:51;;;;;;;;;;;;;;;;;;2219265;66;1477;-21
2023/09/04 15:50:23;;;;;;;;;;;;;;;;;;2218991;66;2238;-21
2023/09/04 15:52:53;;;;;;;;;;;;;;;;;;2215971;58;2267;-21
2023/09/04 15:55:23;;;;;;;;;;;;;;;;;;2219214;58;1938;-22
2023/09/04 15:57:54;;;;;;;;;;;;;;;;;;2219121;59;1998;-20
2023/09/04 16:00:24;;;;;;;;;;;;;;;;;;2218769;58;1779;-20
2023/09/04 16:02:55;;;;;;;;;;;;;;;;;;2218599;66;2008;-20
2023/09/04 16:05:25;;;;;;;;;;;;;;;;;;2219211;66;1668;-20
2023/09/04 16:07:55;;;;;;;;;;;;;;;;;;2218425;66;1680;-20
2023/09/04 16:10:25;;;;;;;;;;;;;;;;;;2215960;66;1528;-22
2023/09/04 16:12:56;;;;;;;;;;;;;;;;;;2216763;58;2049;-22
2023/09/04 16:15:26;;;;;;;;;;;;;;;;;;2219524;66;2401;-22
2023/09/04 16:17:56;;;;;;;;;;;;;;;;;;2218954;58;1943;-22
2023/09/04 16:20:26;;;;;;;;;;;;;;;;;;2218804;66;2196;-22
2023/09/04 16:22:58;;;;;;;;;;;;;;;;;;2218286;66;2665;-22
2023/09/04 16:25:28;;;;;;;;;;;;;;;;;;2218035;58;2570;-22
2023/09/04 16:27:59;;;;;;;;;;;;;;;;;;2217520;58;2281;-22
2023/09/04 16:30:29;;;;;;;;;;;;;;;;;;2214962;66;1829;-22
2023/09/04 16:32:59;;;;;;;;;;;;;;;;;;2218991;58;1916;-22
2023/09/04 16:35:29;;;;;;;;;;;;;;;;;;2214992;66;2906;-22
2023/09/04 16:37:59;;;;;;;;;;;;;;;;;;2218635;66;1948;-22
2023/09/04 16:40:30;;;;;;;;;;;;;;;;;;2219126;66;2308;-22
2023/09/04 16:43:00;;;;;;;;;;;;;;;;;;2218857;66;1763;-22
2023/09/04 16:45:31;;;;;;;;;;;;;;;;;;2219531;58;1997;-22
2023/09/04 16:48:01;;;;;;;;;;;;;;;;;;2218921;66;1989;-22
2023/09/04 16:50:32;;;;;;;;;;;;;;;;;;2218993;66;2132;-22
2023/09/04 16:53:02;;;;;;;;;;;;;;;;;;2214220;59;2550;-22
2023/09/04 16:55:33;;;;;;;;;;;;;;;;;;2219261;66;2646;-22
2023/09/04 16:58:03;;;;;;;;;;;;;;;;;;2218687;66;1968;-22
2023/09/04 17:00:33;;;;;;;;;;;;;;;;;;2219432;58;2081;-22
2023/09/04 17:03:04;;;;;;;;;;;;;;;;;;2218218;66;2002;-22
2023/09/04 17:05:35;;;;;;;;;;;;;;;;;;2218827;66;1907;-22
2023/09/04 17:08:05;;;;;;;;;;;;;;;;;;2214775;66;1793;-22
2023/09/04 17:10:35;;;;;;;;;;;;;;;;;;2216208;66;1983;-22
2023/09/04 17:13:06;;;;;;;;;;;;;;;;;;2218692;58;1896;-22
2023/09/04 17:15:36;;;;;;;;;;;;;;;;;;2219402;66;1799;-22
2023/09/04 17:18:06;;;;;;;;;;;;;;;;;;2217871;66;2343;-22
2023/09/04 17:20:36;;;;;;;;;;;;;;;;;;2218771;66;2461;-22
2023/09/04 17:23:07;;;;;;;;;;;;;;;;;;2218274;66;1482;-22
2023/09/04 17:25:38;;;;;;;;;;;;;;;;;;2219517;58;1286;-22
2023/09/04 17:28:08;;;;;;;;;;;;;;;;;;2216788;58;2400;-22
2023/09/04 17:30:38;;;;;;;;;;;;;;;;;;2218300;58;1869;-22